sensor_id;sensor_type;location;lat;lon;timestamp;pressure;altitude;pressure_sealevel;temperature;humidity
47985;BME280;33753;52.912;-7.342;2023-05-10T00:02:03;100001.72;;;10.42;100.00
47985;BME280;33753;52.912;-7.342;2023-05-10T00:04:33;100007.78;;;10.44;100.00
47985;BME280;33753;52.912;-7.342;2023-05-10T00:07:02;100009.66;;;10.44;100.00
47985;BME280;33753;52.912;-7.342;2023-05-10T00:09:30;100014.69;;;10.47;100.00
47985;BME280;33753;52.912;-7.342;2023-05-10T00:11:58;100017.94;;;10.42;100.00
47985;BME280;33753;52.912;-7.342;2023-05-10T00:14:26;100026.69;;;10.44;100.00
47985;BME280;33753;52.912;-7.342;2023-05-10T00:16:55;100017.56;;;10.45;100.00
47985;BME280;33753;52.912;-7.342;2023-05-10T00:19:23;100020.94;;;10.47;100.00
47985;BME280;33753;52.912;-7.342;2023-05-10T00:21:53;100019.63;;;10.43;100.00
47985;BME280;33753;52.912;-7.342;2023-05-10T00:24:21;100024.88;;;10.45;100.00
47985;BME280;33753;52.912;-7.342;2023-05-10T00:26:49;100026.69;;;10.44;100.00
47985;BME280;33753;52.912;-7.342;2023-05-10T00:29:17;100031.94;;;10.46;100.00
47985;BME280;33753;52.912;-7.342;2023-05-10T00:31:46;100025.88;;;10.44;100.00
47985;BME280;33753;52.912;-7.342;2023-05-10T00:34:15;100039.03;;;10.47;100.00
47985;BME280;33753;52.912;-7.342;2023-05-10T00:36:44;100026.25;;;10.41;100.00
47985;BME280;33753;52.912;-7.342;2023-05-10T00:39:14;100028.75;;;10.42;100.00
47985;BME280;33753;52.912;-7.342;2023-05-10T00:41:42;100025.75;;;10.37;100.00
47985;BME280;33753;52.912;-7.342;2023-05-10T00:44:10;100029.50;;;10.36;100.00
47985;BME280;33753;52.912;-7.342;2023-05-10T00:46:38;100016.47;;;10.31;100.00
47985;BME280;33753;52.912;-7.342;2023-05-10T00:49:06;100022.03;;;10.38;100.00
47985;BME280;33753;52.912;-7.342;2023-05-10T00:51:35;100019.16;;;10.40;100.00
47985;BME280;33753;52.912;-7.342;2023-05-10T00:54:04;100025.38;;;10.40;100.00
47985;BME280;33753;52.912;-7.342;2023-05-10T00:56:34;100026.69;;;10.44;100.00
47985;BME280;33753;52.912;-7.342;2023-05-10T00:59:03;100028.56;;;10.44;100.00
47985;BME280;33753;52.912;-7.342;2023-05-10T01:01:31;100037.16;;;10.47;100.00
47985;BME280;33753;52.912;-7.342;2023-05-10T01:04:00;100028.88;;;10.49;100.00
47985;BME280;33753;52.912;-7.342;2023-05-10T01:06:28;100026.19;;;10.49;100.00
47985;BME280;33753;52.912;-7.342;2023-05-10T01:08:57;100024.88;;;10.45;100.00
47985;BME280;33753;52.912;-7.342;2023-05-10T01:11:25;100016.56;;;10.46;100.00
47985;BME280;33753;52.912;-7.342;2023-05-10T01:13:56;100017.44;;;10.38;100.00
47985;BME280;33753;52.912;-7.342;2023-05-10T01:16:25;100017.75;;;10.44;100.00
47985;BME280;33753;52.912;-7.342;2023-05-10T01:18:54;100021.66;;;10.41;100.00
47985;BME280;33753;52.912;-7.342;2023-05-10T01:21:23;100007.53;;;10.31;100.00
47985;BME280;33753;52.912;-7.342;2023-05-10T01:24:05;100021.53;;;10.34;100.00
47985;BME280;33753;52.912;-7.342;2023-05-10T01:32:14;100022.41;;;10.35;100.00
47985;BME280;33753;52.912;-7.342;2023-05-10T01:34:47;100019.34;;;10.30;100.00
47985;BME280;33753;52.912;-7.342;2023-05-10T01:37:18;100011.59;;;10.35;100.00
47985;BME280;33753;52.912;-7.342;2023-05-10T01:39:49;100020.72;;;10.34;100.00
47985;BME280;33753;52.912;-7.342;2023-05-10T01:42:23;100013.13;;;10.29;100.00
47985;BME280;33753;52.912;-7.342;2023-05-10T01:44:55;100013.44;;;10.34;100.00
47985;BME280;33753;52.912;-7.342;2023-05-10T01:47:29;100012.75;;;10.32;100.00
47985;BME280;33753;52.912;-7.342;2023-05-10T01:50:01;100017.81;;;10.35;100.00
47985;BME280;33753;52.912;-7.342;2023-05-10T01:52:30;100016.00;;;10.28;100.00
47985;BME280;33753;52.912;-7.342;2023-05-10T01:55:01;100019.34;;;10.30;100.00
47985;BME280;33753;52.912;-7.342;2023-05-10T01:57:31;100011.78;;;10.25;100.00
47985;BME280;33753;52.912;-7.342;2023-05-10T02:00:01;100009.28;;;10.24;100.00
47985;BME280;33753;52.912;-7.342;2023-05-10T02:02:42;100008.59;;;10.21;100.00
47985;BME280;33753;52.912;-7.342;2023-05-10T02:05:13;100004.50;;;10.26;100.00
47985;BME280;33753;52.912;-7.342;2023-05-10T02:07:42;100009.47;;;10.22;100.00
47985;BME280;33753;52.912;-7.342;2023-05-10T02:10:11;100003.03;;;10.23;100.00
47985;BME280;33753;52.912;-7.342;2023-05-10T02:12:40;100003.69;;;10.25;100.00
47985;BME280;33753;52.912;-7.342;2023-05-10T02:15:10;100002.66;;;10.26;100.00
47985;BME280;33753;52.912;-7.342;2023-05-10T02:17:39;100006.50;;;10.32;100.00
47985;BME280;33753;52.912;-7.342;2023-05-10T02:20:11;100012.25;;;10.29;100.00
47985;BME280;33753;52.912;-7.342;2023-05-10T02:22:41;100006.84;;;10.29;100.00
47985;BME280;33753;52.912;-7.342;2023-05-10T02:25:11;100012.25;;;10.29;100.00
47985;BME280;33753;52.912;-7.342;2023-05-10T02:27:42;100014.09;;;10.36;100.00
47985;BME280;33753;52.912;-7.342;2023-05-10T02:30:11;100012.09;;;10.30;100.00
47985;BME280;33753;52.912;-7.342;2023-05-10T02:32:40;100011.91;;;10.32;100.00
47985;BME280;33753;52.912;-7.342;2023-05-10T02:35:08;100011.28;;;10.21;100.00
47985;BME280;33753;52.912;-7.342;2023-05-10T02:37:39;100011.06;;;10.31;100.00
47985;BME280;33753;52.912;-7.342;2023-05-10T02:40:07;100009.91;;;10.26;100.00
47985;BME280;33753;52.912;-7.342;2023-05-10T02:42:37;100005.56;;;10.25;100.00
47985;BME280;33753;52.912;-7.342;2023-05-10T02:45:07;100009.28;;;10.24;100.00
47985;BME280;33753;52.912;-7.342;2023-05-10T02:47:35;100011.28;;;10.21;100.00
47985;BME280;33753;52.912;-7.342;2023-05-10T02:50:04;100014.31;;;10.27;100.00
47985;BME280;33753;52.912;-7.342;2023-05-10T02:52:36;100010.97;;;10.25;100.00
47985;BME280;33753;52.912;-7.342;2023-05-10T02:55:09;100011.28;;;10.21;100.00
47985;BME280;33753;52.912;-7.342;2023-05-10T02:57:40;100014.69;;;10.24;100.00
47985;BME280;33753;52.912;-7.342;2023-05-10T03:00:09;100008.31;;;10.16;100.00
47985;BME280;33753;52.912;-7.342;2023-05-10T03:02:38;100014.88;;;10.22;100.00
47985;BME280;33753;52.912;-7.342;2023-05-10T03:05:07;100016.38;;;10.25;100.00
47985;BME280;33753;52.912;-7.342;2023-05-10T03:07:35;100013.34;;;10.19;100.00
47985;BME280;33753;52.912;-7.342;2023-05-10T03:10:04;100022.09;;;10.21;100.00
47985;BME280;33753;52.912;-7.342;2023-05-10T03:12:41;100008.13;;;10.18;100.00
47985;BME280;33753;52.912;-7.342;2023-05-10T03:15:17;100014.69;;;10.24;100.00
47985;BME280;33753;52.912;-7.342;2023-05-10T03:17:47;100004.59;;;10.17;100.00
47985;BME280;33753;52.912;-7.342;2023-05-10T03:20:20;100007.13;;;10.19;100.00
47985;BME280;33753;52.912;-7.342;2023-05-10T03:22:50;100016.06;;;10.19;100.00
47985;BME280;33753;52.912;-7.342;2023-05-10T03:25:19;100010.00;;;10.17;100.00
47985;BME280;33753;52.912;-7.342;2023-05-10T03:27:51;100014.09;;;10.13;100.00
47985;BME280;33753;52.912;-7.342;2023-05-10T03:30:20;100005.78;;;10.15;100.00
47985;BME280;33753;52.912;-7.342;2023-05-10T03:32:49;100005.06;;;10.21;100.00
47985;BME280;33753;52.912;-7.342;2023-05-10T03:35:17;100011.97;;;10.24;100.00
47985;BME280;33753;52.912;-7.342;2023-05-10T03:37:45;100005.78;;;10.15;100.00
47985;BME280;33753;52.912;-7.342;2023-05-10T03:40:14;100005.56;;;10.25;100.00
47985;BME280;33753;52.912;-7.342;2023-05-10T03:42:43;100002.00;;;10.24;100.00
47985;BME280;33753;52.912;-7.342;2023-05-10T03:45:13;99999.84;;;10.19;100.00
47985;BME280;33753;52.912;-7.342;2023-05-10T03:47:41;99996.41;;;10.26;100.00
47985;BME280;33753;52.912;-7.342;2023-05-10T03:50:10;99995.44;;;10.18;100.00
47985;BME280;33753;52.912;-7.342;2023-05-10T03:52:38;99995.09;;;10.21;100.00
47985;BME280;33753;52.912;-7.342;2023-05-10T03:55:07;100003.50;;;10.27;100.00
47985;BME280;33753;52.912;-7.342;2023-05-10T03:57:35;100000.97;;;10.25;100.00
47985;BME280;33753;52.912;-7.342;2023-05-10T04:00:05;99993.41;;;10.20;100.00
47985;BME280;33753;52.912;-7.342;2023-05-10T04:02:44;99992.56;;;10.20;100.00
47985;BME280;33753;52.912;-7.342;2023-05-10T04:05:17;99990.53;;;10.22;100.00
47985;BME280;33753;52.912;-7.342;2023-05-10T04:07:46;99999.78;;;10.28;100.00
47985;BME280;33753;52.912;-7.342;2023-05-10T04:10:15;100008.91;;;10.27;100.00
47985;BME280;33753;52.912;-7.342;2023-05-10T04:12:44;99998.75;;;10.29;100.00
47985;BME280;33753;52.912;-7.342;2023-05-10T04:15:12;99995.38;;;10.27;100.00
47985;BME280;33753;52.912;-7.342;2023-05-10T04:17:41;99998.75;;;10.29;100.00
47985;BME280;33753;52.912;-7.342;2023-05-10T04:20:11;99998.09;;;10.27;100.00
47985;BME280;33753;52.912;-7.342;2023-05-10T04:22:40;100001.09;;;10.32;100.00
47985;BME280;33753;52.912;-7.342;2023-05-10T04:25:08;99993.50;;;10.27;100.00
47985;BME280;33753;52.912;-7.342;2023-05-10T04:27:37;99991.72;;;10.19;100.00
47985;BME280;33753;52.912;-7.342;2023-05-10T04:30:05;100002.19;;;10.23;100.00
47985;BME280;33753;52.912;-7.342;2023-05-10T04:32:36;100003.50;;;10.27;100.00
47985;BME280;33753;52.912;-7.342;2023-05-10T04:35:04;100000.84;;;10.18;100.00
47985;BME280;33753;52.912;-7.342;2023-05-10T04:37:34;100002.66;;;10.26;100.00
47985;BME280;33753;52.912;-7.342;2023-05-10T04:40:03;100007.94;;;10.19;100.00
47985;BME280;33753;52.912;-7.342;2023-05-10T04:42:32;100004.22;;;10.20;100.00
47985;BME280;33753;52.912;-7.342;2023-05-10T04:45:00;100004.94;;;10.14;100.00
47985;BME280;33753;52.912;-7.342;2023-05-10T04:47:28;99991.72;;;10.19;100.00
47985;BME280;33753;52.912;-7.342;2023-05-10T04:49:56;99994.84;;;10.08;100.00
47985;BME280;33753;52.912;-7.342;2023-05-10T04:52:25;99986.31;;;10.19;100.00
47985;BME280;33753;52.912;-7.342;2023-05-10T04:54:54;99987.69;;;10.15;100.00
47985;BME280;33753;52.912;-7.342;2023-05-10T04:57:22;99981.75;;;10.20;100.00
47985;BME280;33753;52.912;-7.342;2023-05-10T04:59:51;99990.03;;;10.18;100.00
47985;BME280;33753;52.912;-7.342;2023-05-10T05:02:19;99991.00;;;10.26;100.00
47985;BME280;33753;52.912;-7.342;2023-05-10T05:04:47;99987.84;;;10.22;100.00
47985;BME280;33753;52.912;-7.342;2023-05-10T05:07:15;99998.50;;;10.15;100.00
47985;BME280;33753;52.912;-7.342;2023-05-10T05:09:43;99987.28;;;10.27;100.00
47985;BME280;33753;52.912;-7.342;2023-05-10T05:12:13;99991.69;;;10.28;100.00
47985;BME280;33753;52.912;-7.342;2023-05-10T05:14:41;99998.91;;;10.27;100.00
47985;BME280;33753;52.912;-7.342;2023-05-10T05:17:09;100010.22;;;10.31;100.00
47985;BME280;33753;52.912;-7.342;2023-05-10T05:19:38;100005.25;;;10.19;100.00
47985;BME280;33753;52.912;-7.342;2023-05-10T05:22:06;100009.63;;;10.20;100.00
47985;BME280;33753;52.912;-7.342;2023-05-10T05:24:37;100003.91;;;10.15;100.00
47985;BME280;33753;52.912;-7.342;2023-05-10T05:27:06;100005.56;;;10.25;100.00
47985;BME280;33753;52.912;-7.342;2023-05-10T05:29:35;100005.28;;;10.11;100.00
47985;BME280;33753;52.912;-7.342;2023-05-10T05:32:04;100002.19;;;10.23;100.00
47985;BME280;33753;52.912;-7.342;2023-05-10T05:34:35;100004.59;;;10.17;100.00
47985;BME280;33753;52.912;-7.342;2023-05-10T05:37:03;100000.03;;;10.18;100.00
47985;BME280;33753;52.912;-7.342;2023-05-10T05:39:31;99997.50;;;10.16;100.00
47985;BME280;33753;52.912;-7.342;2023-05-10T05:41:59;100009.63;;;10.20;100.00
47985;BME280;33753;52.912;-7.342;2023-05-10T05:44:27;100008.91;;;10.27;100.00
47985;BME280;33753;52.912;-7.342;2023-05-10T05:46:57;100007.59;;;10.23;100.00
47985;BME280;33753;52.912;-7.342;2023-05-10T05:49:25;100011.28;;;10.21;100.00
47985;BME280;33753;52.912;-7.342;2023-05-10T05:51:54;100016.00;;;10.28;100.00
47985;BME280;33753;52.912;-7.342;2023-05-10T05:54:22;100011.66;;;10.18;100.00
47985;BME280;33753;52.912;-7.342;2023-05-10T05:56:50;100011.28;;;10.21;100.00
47985;BME280;33753;52.912;-7.342;2023-05-10T05:59:19;100011.97;;;10.24;100.00
47985;BME280;33753;52.912;-7.342;2023-05-10T06:01:47;100018.03;;;10.26;100.00
47985;BME280;33753;52.912;-7.342;2023-05-10T06:04:17;100029.56;;;10.19;100.00
47985;BME280;33753;52.912;-7.342;2023-05-10T06:06:45;100032.09;;;10.21;100.00
47985;BME280;33753;52.912;-7.342;2023-05-10T06:09:13;100028.56;;;10.20;100.00
47985;BME280;33753;52.912;-7.342;2023-05-10T06:11:41;100034.97;;;10.19;100.00
47985;BME280;33753;52.912;-7.342;2023-05-10T06:14:09;100029.44;;;10.13;100.00
47985;BME280;33753;52.912;-7.342;2023-05-10T06:16:37;100036.34;;;10.15;100.00
47985;BME280;33753;52.912;-7.342;2023-05-10T06:19:06;100044.59;;;10.22;100.00
47985;BME280;33753;52.912;-7.342;2023-05-10T06:21:36;100047.47;;;10.20;100.00
47985;BME280;33753;52.912;-7.342;2023-05-10T06:24:05;100057.44;;;10.20;100.00
47985;BME280;33753;52.912;-7.342;2023-05-10T06:26:33;100072.44;;;10.23;100.00
47985;BME280;33753;52.912;-7.342;2023-05-10T06:29:01;100059.91;;;10.30;100.00
47985;BME280;33753;52.912;-7.342;2023-05-10T06:31:30;100072.19;;;10.41;100.00
47985;BME280;33753;52.912;-7.342;2023-05-10T06:33:58;100064.47;;;10.37;100.00
47985;BME280;33753;52.912;-7.342;2023-05-10T06:36:26;100068.50;;;10.33;100.00
47985;BME280;33753;52.912;-7.342;2023-05-10T06:38:56;100061.81;;;10.52;100.00
47985;BME280;33753;52.912;-7.342;2023-05-10T06:41:24;100063.50;;;10.53;100.00
47985;BME280;33753;52.912;-7.342;2023-05-10T06:43:52;100063.25;;;10.63;100.00
47985;BME280;33753;52.912;-7.342;2023-05-10T06:46:20;100053.03;;;10.50;100.00
47985;BME280;33753;52.912;-7.342;2023-05-10T06:48:48;100060.28;;;10.50;100.00
47985;BME280;33753;52.912;-7.342;2023-05-10T06:51:16;100057.72;;;10.57;100.00
47985;BME280;33753;52.912;-7.342;2023-05-10T06:53:45;100063.72;;;10.67;100.00
47985;BME280;33753;52.912;-7.342;2023-05-10T06:56:14;100062.19;;;10.64;100.00
47985;BME280;33753;52.912;-7.342;2023-05-10T06:58:42;100065.97;;;10.78;100.00
47985;BME280;33753;52.912;-7.342;2023-05-10T07:01:10;100067.84;;;10.78;100.00
47985;BME280;33753;52.912;-7.342;2023-05-10T07:03:39;100066.19;;;10.92;100.00
47985;BME280;33753;52.912;-7.342;2023-05-10T07:06:07;100061.00;;;11.05;100.00
47985;BME280;33753;52.912;-7.342;2023-05-10T07:08:55;100071.66;;;11.21;100.00
47985;BME280;33753;52.912;-7.342;2023-05-10T07:11:25;100069.88;;;11.29;100.00
47985;BME280;33753;52.912;-7.342;2023-05-10T07:13:53;100073.91;;;11.33;100.00
47985;BME280;33753;52.912;-7.342;2023-05-10T07:16:22;100065.50;;;11.28;100.00
47985;BME280;33753;52.912;-7.342;2023-05-10T07:18:50;100070.91;;;11.28;100.00
47985;BME280;33753;52.912;-7.342;2023-05-10T07:21:19;100059.81;;;11.22;100.00
47985;BME280;33753;52.912;-7.342;2023-05-10T07:23:50;100058.13;;;11.36;100.00
47985;BME280;33753;52.912;-7.342;2023-05-10T07:26:19;100060.94;;;11.28;100.00
47985;BME280;33753;52.912;-7.342;2023-05-10T07:28:49;100061.41;;;11.32;100.00
47985;BME280;33753;52.912;-7.342;2023-05-10T07:31:18;100051.22;;;11.19;100.00
47985;BME280;33753;52.912;-7.342;2023-05-10T07:33:46;100045.25;;;11.23;100.00
47985;BME280;33753;52.912;-7.342;2023-05-10T07:36:14;100036.75;;;11.27;100.00
47985;BME280;33753;52.912;-7.342;2023-05-10T07:38:42;100042.25;;;11.33;100.00
47985;BME280;33753;52.912;-7.342;2023-05-10T07:41:11;100037.50;;;11.20;100.00
47985;BME280;33753;52.912;-7.342;2023-05-10T07:43:39;100041.88;;;11.21;100.00
47985;BME280;33753;52.912;-7.342;2023-05-10T07:46:08;100037.84;;;11.17;100.00
47985;BME280;33753;52.912;-7.342;2023-05-10T07:48:37;100033.19;;;11.11;100.00
47985;BME280;33753;52.912;-7.342;2023-05-10T07:51:05;100035.44;;;11.22;100.00
47985;BME280;33753;52.912;-7.342;2023-05-10T07:53:36;100040.22;;;11.20;100.00
47985;BME280;33753;52.912;-7.342;2023-05-10T07:56:19;100040.94;;;11.14;100.00
47985;BME280;33753;52.912;-7.342;2023-05-10T07:58:48;100038.22;;;11.14;100.00
47985;BME280;33753;52.912;-7.342;2023-05-10T08:01:17;100045.50;;;11.29;100.00
47985;BME280;33753;52.912;-7.342;2023-05-10T08:03:45;100046.81;;;11.33;100.00
47985;BME280;33753;52.912;-7.342;2023-05-10T08:06:14;100047.38;;;11.28;100.00
47985;BME280;33753;52.912;-7.342;2023-05-10T08:08:42;100045.22;;;11.38;100.00
47985;BME280;33753;52.912;-7.342;2023-05-10T08:11:12;100045.50;;;11.29;100.00
47985;BME280;33753;52.912;-7.342;2023-05-10T08:13:40;100041.22;;;11.49;100.00
47985;BME280;33753;52.912;-7.342;2023-05-10T08:16:08;100046.09;;;11.39;100.00
47985;BME280;33753;52.912;-7.342;2023-05-10T08:18:38;100041.22;;;11.49;100.00
47985;BME280;33753;52.912;-7.342;2023-05-10T08:21:06;100045.78;;;11.64;100.00
47985;BME280;33753;52.912;-7.342;2023-05-10T08:23:34;100044.97;;;11.63;100.00
47985;BME280;33753;52.912;-7.342;2023-05-10T08:26:02;100038.97;;;11.68;100.00
47985;BME280;33753;52.912;-7.342;2023-05-10T08:28:30;100031.47;;;11.70;100.00
47985;BME280;33753;52.912;-7.342;2023-05-10T08:30:58;100027.88;;;11.84;100.00
47985;BME280;33753;52.912;-7.342;2023-05-10T08:33:26;100030.22;;;11.87;100.00
47985;BME280;33753;52.912;-7.342;2023-05-10T08:35:56;100033.19;;;11.92;100.00
47985;BME280;33753;52.912;-7.342;2023-05-10T08:38:24;100030.50;;;11.92;100.00
47985;BME280;33753;52.912;-7.342;2023-05-10T08:40:53;100022.88;;;11.96;100.00
47985;BME280;33753;52.912;-7.342;2023-05-10T08:43:23;100029.38;;;12.02;100.00
47985;BME280;33753;52.912;-7.342;2023-05-10T08:45:53;100036.63;;;12.16;100.00
47985;BME280;33753;52.912;-7.342;2023-05-10T08:48:23;100029.91;;;12.12;100.00
47985;BME280;33753;52.912;-7.342;2023-05-10T08:50:52;100021.06;;;12.25;100.00
47985;BME280;33753;52.912;-7.342;2023-05-10T08:53:23;100016.69;;;12.24;100.00
47985;BME280;33753;52.912;-7.342;2023-05-10T08:55:54;100011.56;;;12.36;100.00
47985;BME280;33753;52.912;-7.342;2023-05-10T08:58:22;100023.66;;;12.33;100.00
47985;BME280;33753;52.912;-7.342;2023-05-10T09:00:51;100022.16;;;12.52;100.00
47985;BME280;33753;52.912;-7.342;2023-05-10T09:03:19;100029.06;;;12.55;100.00
47985;BME280;33753;52.912;-7.342;2023-05-10T09:05:47;100030.00;;;12.69;100.00
47985;BME280;33753;52.912;-7.342;2023-05-10T09:08:16;100054.59;;;12.60;100.00
47985;BME280;33753;52.912;-7.342;2023-05-10T09:10:46;100042.63;;;12.55;100.00
47985;BME280;33753;52.912;-7.342;2023-05-10T09:13:16;100045.13;;;12.78;100.00
47985;BME280;33753;52.912;-7.342;2023-05-10T09:15:45;100033.94;;;12.88;100.00
47985;BME280;33753;52.912;-7.342;2023-05-10T09:18:13;100032.13;;;13.02;100.00
47985;BME280;33753;52.912;-7.342;2023-05-10T09:20:42;100032.38;;;13.07;100.00
47985;BME280;33753;52.912;-7.342;2023-05-10T09:23:10;100025.19;;;13.27;100.00
47985;BME280;33753;52.912;-7.342;2023-05-10T09:25:38;100028.44;;;13.44;100.00
47985;BME280;33753;52.912;-7.342;2023-05-10T09:28:10;100041.88;;;13.53;100.00
47985;BME280;33753;52.912;-7.342;2023-05-10T09:30:39;100048.16;;;13.53;100.00
47985;BME280;33753;52.912;-7.342;2023-05-10T09:33:07;100034.34;;;13.48;100.00
47985;BME280;33753;52.912;-7.342;2023-05-10T09:35:35;100026.44;;;13.53;100.00
47985;BME280;33753;52.912;-7.342;2023-05-10T09:38:06;100004.94;;;13.30;100.00
47985;BME280;33753;52.912;-7.342;2023-05-10T09:40:35;99996.59;;;13.31;100.00
47985;BME280;33753;52.912;-7.342;2023-05-10T09:43:04;99986.25;;;13.42;100.00
47985;BME280;33753;52.912;-7.342;2023-05-10T09:45:35;99985.84;;;13.45;100.00
47985;BME280;33753;52.912;-7.342;2023-05-10T09:48:05;99998.84;;;13.63;100.00
47985;BME280;33753;52.912;-7.342;2023-05-10T09:50:33;99996.00;;;13.85;100.00
47985;BME280;33753;52.912;-7.342;2023-05-10T09:53:02;99996.44;;;13.88;100.00
47985;BME280;33753;52.912;-7.342;2023-05-10T09:55:38;100021.19;;;14.20;100.00
47985;BME280;33753;52.912;-7.342;2023-05-10T09:58:07;99997.75;;;13.99;100.00
47985;BME280;33753;52.912;-7.342;2023-05-10T10:00:39;100002.75;;;14.09;100.00
47985;BME280;33753;52.912;-7.342;2023-05-10T10:03:11;100004.84;;;14.07;100.00
47985;BME280;33753;52.912;-7.342;2023-05-10T10:05:40;99999.41;;;14.07;100.00
47985;BME280;33753;52.912;-7.342;2023-05-10T10:08:09;99996.53;;;14.28;100.00
47985;BME280;33753;52.912;-7.342;2023-05-10T10:10:37;99983.56;;;14.77;100.00
47985;BME280;33753;52.912;-7.342;2023-05-10T10:13:07;100002.78;;;15.29;100.00
47985;BME280;33753;52.912;-7.342;2023-05-10T10:15:35;100000.41;;;15.46;100.00
47985;BME280;33753;52.912;-7.342;2023-05-10T10:18:05;100022.84;;;15.42;100.00
47985;BME280;33753;52.912;-7.342;2023-05-10T10:20:35;99990.69;;;14.92;100.00
47985;BME280;33753;52.912;-7.342;2023-05-10T10:23:04;100009.56;;;14.86;100.00
47985;BME280;33753;52.912;-7.342;2023-05-10T10:25:33;100011.81;;;14.43;100.00
47985;BME280;33753;52.912;-7.342;2023-05-10T10:28:05;100007.38;;;14.08;100.00
47985;BME280;33753;52.912;-7.342;2023-05-10T10:30:37;100016.94;;;13.97;100.00
47985;BME280;33753;52.912;-7.342;2023-05-10T10:33:18;100027.25;;;14.15;100.00
47985;BME280;33753;52.912;-7.342;2023-05-10T10:35:54;100031.28;;;14.26;100.00
47985;BME280;33753;52.912;-7.342;2023-05-10T10:38:23;100018.72;;;14.39;100.00
47985;BME280;33753;52.912;-7.342;2023-05-10T10:41:01;100017.47;;;14.41;100.00
47985;BME280;33753;52.912;-7.342;2023-05-10T10:43:30;99995.25;;;14.24;100.00
47985;BME280;33753;52.912;-7.342;2023-05-10T10:46:09;100000.31;;;14.54;100.00
47985;BME280;33753;52.912;-7.342;2023-05-10T10:48:39;100005.75;;;14.54;100.00
47985;BME280;33753;52.912;-7.342;2023-05-10T10:51:07;100003.69;;;14.56;100.00
47985;BME280;33753;52.912;-7.342;2023-05-10T10:53:38;100002.41;;;14.59;100.00
47985;BME280;33753;52.912;-7.342;2023-05-10T10:56:08;99993.19;;;14.53;100.00
47985;BME280;33753;52.912;-7.342;2023-05-10T10:58:37;99988.22;;;14.63;100.00
47985;BME280;33753;52.912;-7.342;2023-05-10T11:01:10;99997.00;;;14.65;100.00
47985;BME280;33753;52.912;-7.342;2023-05-10T11:03:39;99991.28;;;14.60;100.00
47985;BME280;33753;52.912;-7.342;2023-05-10T11:06:08;99986.91;;;14.39;100.00
47985;BME280;33753;52.912;-7.342;2023-05-10T11:08:41;99983.16;;;14.47;100.00
47985;BME280;33753;52.912;-7.342;2023-05-10T11:15:59;99992.56;;;14.38;100.00
47985;BME280;33753;52.912;-7.342;2023-05-10T11:18:37;100005.34;;;14.44;100.00
47985;BME280;33753;52.912;-7.342;2023-05-10T11:21:08;100007.44;;;14.55;100.00
47985;BME280;33753;52.912;-7.342;2023-05-10T11:23:49;100000.13;;;14.62;100.00
47985;BME280;33753;52.912;-7.342;2023-05-10T11:26:18;100001.16;;;14.81;100.00
47985;BME280;33753;52.912;-7.342;2023-05-10T11:28:49;100016.22;;;15.11;100.00
47985;BME280;33753;52.912;-7.342;2023-05-10T11:31:18;100019.13;;;15.29;100.00
47985;BME280;33753;52.912;-7.342;2023-05-10T11:33:48;100006.91;;;15.38;100.00
47985;BME280;33753;52.912;-7.342;2023-05-10T11:36:19;100000.03;;;15.29;100.00
47985;BME280;33753;52.912;-7.342;2023-05-10T11:38:47;99998.03;;;15.63;100.00
47985;BME280;33753;52.912;-7.342;2023-05-10T11:41:16;99972.09;;;15.47;100.00
47985;BME280;33753;52.912;-7.342;2023-05-10T11:43:46;99981.06;;;15.61;100.00
47985;BME280;33753;52.912;-7.342;2023-05-10T11:46:15;99977.50;;;15.61;100.00
47985;BME280;33753;52.912;-7.342;2023-05-10T11:48:44;99990.63;;;16.16;100.00
47985;BME280;33753;52.912;-7.342;2023-05-10T11:51:12;99983.75;;;16.38;100.00
47985;BME280;33753;52.912;-7.342;2023-05-10T11:53:41;99990.47;;;16.93;100.00
47985;BME280;33753;52.912;-7.342;2023-05-10T11:56:10;100003.28;;;17.36;100.00
47985;BME280;33753;52.912;-7.342;2023-05-10T11:58:38;99979.09;;;17.33;100.00
47985;BME280;33753;52.912;-7.342;2023-05-10T12:01:07;99986.31;;;17.27;100.00
47985;BME280;33753;52.912;-7.342;2023-05-10T12:03:35;99987.69;;;17.00;100.00
47985;BME280;33753;52.912;-7.342;2023-05-10T12:06:05;99967.66;;;16.55;100.00
47985;BME280;33753;52.912;-7.342;2023-05-10T12:08:35;99974.47;;;16.46;100.00
47985;BME280;33753;52.912;-7.342;2023-05-10T12:11:06;99982.94;;;16.06;100.00
47985;BME280;33753;52.912;-7.342;2023-05-10T12:13:37;99999.66;;;16.48;100.00
47985;BME280;33753;52.912;-7.342;2023-05-10T12:16:13;100005.06;;;16.55;100.00
47985;BME280;33753;52.912;-7.342;2023-05-10T12:18:41;99993.25;;;16.61;100.00
47985;BME280;33753;52.912;-7.342;2023-05-10T12:21:10;99996.03;;;16.80;100.00
47985;BME280;33753;52.912;-7.342;2023-05-10T12:23:39;99975.50;;;16.70;100.00
47985;BME280;33753;52.912;-7.342;2023-05-10T12:26:09;99979.78;;;16.66;100.00
47985;BME280;33753;52.912;-7.342;2023-05-10T12:28:38;99972.03;;;16.82;100.00
47985;BME280;33753;52.912;-7.342;2023-05-10T12:31:06;99951.28;;;16.55;100.00
47985;BME280;33753;52.912;-7.342;2023-05-10T12:33:35;99952.16;;;16.74;100.00
47985;BME280;33753;52.912;-7.342;2023-05-10T12:36:03;99961.19;;;16.75;100.00
47985;BME280;33753;52.912;-7.342;2023-05-10T12:38:32;99983.97;;;17.13;100.00
47985;BME280;33753;52.912;-7.342;2023-05-10T12:41:01;99999.31;;;17.14;100.00
47985;BME280;33753;52.912;-7.342;2023-05-10T12:43:32;99966.75;;;16.87;100.00
47985;BME280;33753;52.912;-7.342;2023-05-10T12:46:04;99949.19;;;16.76;100.00
47985;BME280;33753;52.912;-7.342;2023-05-10T12:48:32;99956.84;;;16.67;100.00
47985;BME280;33753;52.912;-7.342;2023-05-10T12:51:01;99964.25;;;16.60;100.00
47985;BME280;33753;52.912;-7.342;2023-05-10T12:53:30;99961.53;;;16.60;100.00
47985;BME280;33753;52.912;-7.342;2023-05-10T12:55:58;99976.13;;;16.72;100.00